Time;durP1;ratioP1;P1;durP2;ratioP2;P2;SDS_P1;SDS_P2;PMS_P1;PMS_P2;Temp;Humidity;BMP_temperature;BMP_pressure;BME280_temperature;BME280_humidity;BME280_pressure;Samples;Min_cycle;Max_cycle;Signal;HPM_P1;HPM_P2
2022/07/09 00:01:08;;;;;;;;;;;;;;;;;;5093143;28;20418;-78
2022/07/09 00:03:38;;;;;;;5.10;1.10;;;;;;;;;;5093049;28;19928;-73
2022/07/09 00:06:07;;;;;;;;;;;;;;;;;;5094689;28;20048;-74
2022/07/09 00:08:37;;;;;;;7.55;1.50;;;;;;;;;;5094182;28;20311;-73
2022/07/09 00:11:07;;;;;;;6.43;1.80;;;;;;;;;;5093502;28;20052;-74
2022/07/09 00:13:36;;;;;;;4.85;1.50;;;;;;;;;;5075788;28;20107;-73
2022/07/09 00:16:06;;;;;;;;;;;;;;;;;;5113446;28;20417;-73
2022/07/09 00:18:36;;;;;;;8.38;2.15;;;;;;;;;;5093446;28;20298;-73
2022/07/09 00:21:06;;;;;;;;;;;;;;;;;;5113550;28;20050;-74
2022/07/09 00:23:36;;;;;;;8.15;1.95;;;;;;;;;;5113324;28;19919;-73
2022/07/09 00:26:05;;;;;;;7.82;2.40;;;;;;;;;;5110065;28;20048;-73
2022/07/09 00:28:35;;;;;;;12.10;4.25;;;;;;;;;;5110086;28;20043;-73
2022/07/09 00:31:05;;;;;;;;;;;;;;;;;;5091943;28;20040;-73
2022/07/09 00:33:35;;;;;;;12.30;2.25;;;;;;;;;;5108666;28;19923;-73
2022/07/09 00:36:04;;;;;;;;;;;;;;;;;;5110392;28;20103;-73
2022/07/09 00:38:34;;;;;;;26.17;12.32;;;;;;;;;;5108536;28;19923;-73
2022/07/09 00:41:04;;;;;;;19.65;11.25;;;;;;;;;;5109113;28;20043;-73
2022/07/09 00:43:34;;;;;;;14.88;4.95;;;;;;;;;;5109006;28;20039;-73
2022/07/09 00:46:04;;;;;;;8.82;3.10;;;;;;;;;;5110095;28;20486;-74
2022/07/09 00:48:34;;;;;;;24.92;12.90;;;;;;;;;;5109201;28;20051;-73
2022/07/09 00:51:04;;;;;;;7.57;2.40;;;;;;;;;;5109832;28;20051;-75
2022/07/09 00:53:34;;;;;;;12.80;2.03;;;;;;;;;;5109404;28;20043;-73
2022/07/09 00:56:07;;;;;;;8.50;1.70;;;;;;;;;;5109000;28;20047;-73
2022/07/09 00:58:37;;;;;;;6.05;1.63;;;;;;;;;;5107658;28;20051;-72
2022/07/09 01:01:08;;;;;;;6.13;1.83;;;;;;;;;;5108304;28;20402;-72
2022/07/09 01:03:38;;;;;;;3.35;1.80;;;;;;;;;;5108811;28;20059;-73
2022/07/09 01:06:08;;;;;;;4.18;1.50;;;;;;;;;;5109556;28;20486;-73
2022/07/09 01:08:38;;;;;;;9.55;1.75;;;;;;;;;;5108818;28;20052;-72
2022/07/09 01:11:08;;;;;;;6.93;1.73;;;;;;;;;;5107397;28;20604;-73
2022/07/09 01:13:37;;;;;;;;;;;;;;;;;;5109988;28;20054;-73
2022/07/09 01:16:15;;;;;;;3.58;1.33;;;;;;;;;;5109426;28;19920;-73
2022/07/09 01:18:47;;;;;;;6.15;1.65;;;;;;;;;;5109181;28;20506;-73
2022/07/09 01:21:17;;;;;;;5.63;1.90;;;;;;;;;;5107553;28;20580;-73
2022/07/09 01:23:47;;;;;;;5.20;2.00;;;;;;;;;;5108268;28;20494;-72
2022/07/09 01:26:19;;;;;;;;;;;;;;;;;;5109619;28;20411;-72
2022/07/09 01:28:50;;;;;;;5.88;1.50;;;;;;;;;;5107505;28;19924;-72
2022/07/09 01:31:20;;;;;;;5.60;1.40;;;;;;;;;;5107710;28;20054;-74
2022/07/09 01:33:51;;;;;;;4.53;1.42;;;;;;;;;;5108373;28;20054;-72
2022/07/09 01:36:21;;;;;;;4.05;1.38;;;;;;;;;;5107757;28;20066;-73
2022/07/09 01:38:51;;;;;;;5.25;1.60;;;;;;;;;;5108388;28;20532;-72
2022/07/09 01:41:20;;;;;;;;;;;;;;;;;;5108631;28;20048;-73
2022/07/09 01:43:50;;;;;;;7.85;1.33;;;;;;;;;;5091338;28;19927;-73
2022/07/09 01:46:20;;;;;;;8.38;1.60;;;;;;;;;;5108681;28;20422;-72
2022/07/09 01:48:51;;;;;;;3.90;1.48;;;;;;;;;;5107384;28;20055;-73
2022/07/09 01:51:21;;;;;;;;;;;;;;;;;;5109490;28;20059;-72
2022/07/09 01:53:52;;;;;;;3.55;1.70;;;;;;;;;;5107870;28;19920;-72
2022/07/09 01:56:21;;;;;;;3.47;1.65;;;;;;;;;;5108417;28;20044;-72
2022/07/09 01:58:51;;;;;;;5.00;1.98;;;;;;;;;;5108555;28;20055;-72
2022/07/09 02:01:20;;;;;;;;;;;;;;;;;;5090797;28;20062;-72
2022/07/09 02:03:50;;;;;;;4.13;1.70;;;;;;;;;;5106788;28;19927;-73
2022/07/09 02:06:20;;;;;;;;;;;;;;;;;;5108526;28;20054;-73
2022/07/09 02:08:50;;;;;;;6.40;3.10;;;;;;;;;;5108164;28;20263;-73
2022/07/09 02:11:19;;;;;;;8.32;3.80;;;;;;;;;;5108464;28;20062;-73
2022/07/09 02:13:49;;;;;;;;;;;;;;;;;;5090929;28;20044;-73
2022/07/09 02:16:18;;;;;;;8.20;4.72;;;;;;;;;;5108424;28;20290;-73
2022/07/09 02:18:48;;;;;;;;;;;;;;;;;;5090593;28;20051;-73
2022/07/09 02:21:18;;;;;;;7.22;4.32;;;;;;;;;;5107996;28;20001;-72
2022/07/09 02:23:48;;;;;;;17.25;5.40;;;;;;;;;;5107789;28;20047;-72
2022/07/09 02:26:18;;;;;;;11.63;5.55;;;;;;;;;;5106674;28;20470;-72
2022/07/09 02:28:48;;;;;;;10.68;3.78;;;;;;;;;;5107907;28;20040;-73
2022/07/09 02:31:18;;;;;;;8.18;3.47;;;;;;;;;;5106556;28;20055;-73
2022/07/09 02:33:48;;;;;;;8.00;2.85;;;;;;;;;;5107450;28;20048;-73
2022/07/09 02:36:19;;;;;;;10.55;3.17;;;;;;;;;;5107556;28;20043;-73
2022/07/09 02:38:50;;;;;;;10.48;3.28;;;;;;;;;;5108041;28;20052;-72
2022/07/09 02:41:19;;;;;;;5.78;2.83;;;;;;;;;;5107961;28;20051;-74
2022/07/09 02:43:50;;;;;;;8.35;3.33;;;;;;;;;;5107721;28;20050;-73
2022/07/09 02:46:19;;;;;;;8.23;3.00;;;;;;;;;;5107623;28;20495;-72
2022/07/09 02:48:49;;;;;;;11.18;3.50;;;;;;;;;;5107011;28;20048;-73
2022/07/09 02:51:19;;;;;;;15.20;3.60;;;;;;;;;;5107330;28;20054;-72
2022/07/09 02:53:50;;;;;;;6.97;3.20;;;;;;;;;;5107233;28;20050;-75
2022/07/09 02:56:20;;;;;;;8.98;4.30;;;;;;;;;;5107723;28;20054;-73
2022/07/09 02:58:49;;;;;;;8.00;3.83;;;;;;;;;;5107405;28;20501;-73
2022/07/09 03:01:19;;;;;;;7.78;3.33;;;;;;;;;;5107407;28;20051;-73
2022/07/09 03:03:49;;;;;;;10.93;3.88;;;;;;;;;;5107231;28;20048;-73
2022/07/09 03:06:18;;;;;;;;;;;;;;;;;;5107303;28;20078;-73
2022/07/09 03:08:48;;;;;;;9.40;3.97;;;;;;;;;;5107034;28;19931;-73
2022/07/09 03:11:18;;;;;;;11.32;4.72;;;;;;;;;;5106836;28;20505;-73
2022/07/09 03:13:47;;;;;;;11.82;4.55;;;;;;;;;;5106904;28;20051;-73
2022/07/09 03:16:17;;;;;;;11.50;5.13;;;;;;;;;;5107278;28;20046;-73
2022/07/09 03:18:47;;;;;;;12.48;4.65;;;;;;;;;;5106796;28;20521;-73
2022/07/09 03:21:18;;;;;;;13.82;5.78;;;;;;;;;;5107149;28;20047;-73
2022/07/09 03:23:47;;;;;;;9.10;4.47;;;;;;;;;;5106785;28;20047;-73
2022/07/09 03:26:17;;;;;;;10.50;3.65;;;;;;;;;;5106628;28;20518;-74
2022/07/09 03:28:47;;;;;;;12.32;3.67;;;;;;;;;;5107424;28;20052;-74
2022/07/09 03:31:16;;;;;;;;;;;;;;;;;;5090130;28;20530;-73
2022/07/09 03:33:46;;;;;;;8.85;3.17;;;;;;;;;;5106942;28;19998;-74
2022/07/09 03:36:23;;;;;;;8.70;3.72;;;;;;;;;;5107233;28;20047;-74
2022/07/09 03:38:53;;;;;;;12.20;3.67;;;;;;;;;;5107163;28;20074;-73
2022/07/09 03:41:22;;;;;;;11.32;3.72;;;;;;;;;;5087399;28;20071;-73
2022/07/09 03:43:52;;;;;;;9.50;3.63;;;;;;;;;;5106700;28;20047;-73
2022/07/09 03:46:23;;;;;;;7.63;3.83;;;;;;;;;;5106875;28;20507;-74
2022/07/09 03:48:54;;;;;;;8.30;3.55;;;;;;;;;;5107326;28;20062;-73
2022/07/09 03:51:23;;;;;;;14.88;3.65;;;;;;;;;;5106733;28;20513;-74
2022/07/09 03:53:54;;;;;;;6.32;3.65;;;;;;;;;;5106807;28;20047;-74
2022/07/09 03:56:24;;;;;;;8.90;3.58;;;;;;;;;;5107444;28;20132;-74
2022/07/09 03:58:54;;;;;;;15.15;4.88;;;;;;;;;;5107138;28;20044;-74
2022/07/09 04:01:23;;;;;;;8.68;4.65;;;;;;;;;;5108927;28;20110;-73
2022/07/09 04:03:53;;;;;;;;;;;;;;;;;;5111183;28;20047;-74
2022/07/09 04:06:23;;;;;;;13.43;3.75;;;;;;;;;;5110570;28;19923;-73
2022/07/09 04:08:52;;;;;;;;;;;;;;;;;;5111026;28;20403;-73
2022/07/09 04:11:22;;;;;;;8.68;3.75;;;;;;;;;;5110596;28;19930;-72
2022/07/09 04:13:52;;;;;;;10.80;3.42;;;;;;;;;;5110657;28;20048;-74
2022/07/09 04:16:21;;;;;;;;;;;;;;;;;;5111249;28;20046;-72
2022/07/09 04:18:51;;;;;;;10.75;3.70;;;;;;;;;;5110016;28;19926;-72
2022/07/09 04:21:22;;;;;;;7.45;3.75;;;;;;;;;;5110071;28;20058;-72
2022/07/09 04:23:52;;;;;;;10.85;4.30;;;;;;;;;;5109930;28;20509;-72
2022/07/09 04:26:23;;;;;;;17.73;4.50;;;;;;;;;;5110437;28;20402;-72
2022/07/09 04:28:54;;;;;;;10.18;4.43;;;;;;;;;;5109853;28;20390;-72
2022/07/09 04:31:24;;;;;;;10.75;4.68;;;;;;;;;;5109356;28;20054;-72
2022/07/09 04:33:54;;;;;;;;;;;;;;;;;;5109718;28;20052;-72
2022/07/09 04:36:24;;;;;;;9.98;4.20;;;;;;;;;;5109860;28;19924;-74
2022/07/09 04:38:55;;;;;;;12.32;4.30;;;;;;;;;;5109650;28;20066;-72
2022/07/09 04:41:25;;;;;;;7.93;4.35;;;;;;;;;;5109738;28;20043;-72
2022/07/09 04:43:55;;;;;;;10.63;4.00;;;;;;;;;;5109798;28;20051;-72
2022/07/09 04:46:27;;;;;;;10.80;3.97;;;;;;;;;;5110153;28;20059;-72
2022/07/09 04:48:57;;;;;;;10.70;4.00;;;;;;;;;;5092308;28;20078;-72
2022/07/09 04:51:26;;;;;;;11.23;4.47;;;;;;;;;;5090454;28;20054;-72
2022/07/09 04:53:56;;;;;;;11.80;4.63;;;;;;;;;;5109855;28;20410;-72
2022/07/09 04:56:26;;;;;;;11.50;4.75;;;;;;;;;;5109454;28;20055;-72
2022/07/09 04:58:59;;;;;;;16.13;4.07;;;;;;;;;;5109582;28;20054;-72
2022/07/09 05:01:30;;;;;;;10.23;4.50;;;;;;;;;;5109746;28;20039;-72
2022/07/09 05:04:00;;;;;;;10.10;4.25;;;;;;;;;;5109521;28;20062;-72
2022/07/09 05:06:30;;;;;;;8.10;4.00;;;;;;;;;;5109405;28;20047;-71
2022/07/09 05:08:59;;;;;;;;;;;;;;;;;;5110111;28;20507;-72
2022/07/09 05:11:30;;;;;;;11.60;4.82;;;;;;;;;;5091028;28;19919;-72
2022/07/09 05:14:00;;;;;;;8.43;4.43;;;;;;;;;;5108628;28;20055;-72
2022/07/09 05:16:30;;;;;;;14.35;4.75;;;;;;;;;;5108906;28;20062;-72
2022/07/09 05:19:00;;;;;;;8.35;4.38;;;;;;;;;;5109323;28;20055;-72
2022/07/09 05:21:30;;;;;;;12.18;4.25;;;;;;;;;;5109115;28;20066;-71
2022/07/09 05:24:01;;;;;;;8.80;4.45;;;;;;;;;;5108867;28;20048;-72
2022/07/09 05:26:31;;;;;;;7.43;4.50;;;;;;;;;;5108745;28;20055;-72
2022/07/09 05:29:00;;;;;;;14.77;4.45;;;;;;;;;;5109021;28;20051;-72
2022/07/09 05:31:30;;;;;;;11.90;4.63;;;;;;;;;;5091018;28;20062;-72
2022/07/09 05:34:03;;;;;;;12.30;5.18;;;;;;;;;;5108956;28;20047;-72
2022/07/09 05:36:33;;;;;;;10.43;4.55;;;;;;;;;;5108926;28;20039;-72
2022/07/09 05:39:02;;;;;;;;;;;;;;;;;;5109232;28;20055;-72
2022/07/09 05:41:32;;;;;;;9.15;4.63;;;;;;;;;;5109025;28;19920;-72
2022/07/09 05:44:04;;;;;;;8.80;4.63;;;;;;;;;;5108531;28;20042;-72
2022/07/09 05:46:35;;;;;;;15.18;5.65;;;;;;;;;;5108825;28;20048;-72
2022/07/09 05:49:04;;;;;;;;;;;;;;;;;;5109149;28;20394;-72
2022/07/09 05:51:34;;;;;;;8.18;4.53;;;;;;;;;;5107816;28;19923;-72
2022/07/09 05:54:04;;;;;;;10.70;4.38;;;;;;;;;;5107989;28;20048;-72
2022/07/09 05:56:34;;;;;;;9.95;4.30;;;;;;;;;;5108530;28;20402;-72
2022/07/09 05:59:04;;;;;;;8.70;4.50;;;;;;;;;;5108328;28;20490;-72
2022/07/09 06:01:38;;;;;;;9.52;4.38;;;;;;;;;;5108196;28;20422;-72
2022/07/09 06:04:09;;;;;;;16.42;5.35;;;;;;;;;;5107959;28;20047;-72
2022/07/09 06:06:39;;;;;;;12.13;5.30;;;;;;;;;;5108748;28;20044;-73
2022/07/09 06:09:10;;;;;;;11.07;4.82;;;;;;;;;;5108293;28;20059;-72
2022/07/09 06:11:39;;;;;;;12.98;4.53;;;;;;;;;;5108054;28;20062;-72
2022/07/09 06:14:09;;;;;;;8.98;4.05;;;;;;;;;;5108992;28;20056;-72
2022/07/09 06:16:39;;;;;;;12.00;4.35;;;;;;;;;;5107954;28;20065;-72
2022/07/09 06:19:08;;;;;;;;;;;;;;;;;;5108236;28;20051;-72
2022/07/09 06:21:38;;;;;;;10.90;3.72;;;;;;;;;;5107996;28;19930;-72
2022/07/09 06:24:08;;;;;;;9.32;4.53;;;;;;;;;;5107332;28;20054;-72
2022/07/09 06:26:38;;;;;;;13.32;5.85;;;;;;;;;;5108196;28;20051;-72
2022/07/09 06:29:07;;;;;;;12.52;5.13;;;;;;;;;;5107475;28;20425;-72
2022/07/09 06:31:37;;;;;;;;;;;;;;;;;;5108534;28;20036;-72
2022/07/09 06:34:07;;;;;;;11.60;5.25;;;;;;;;;;5089993;28;19919;-72
2022/07/09 06:36:36;;;;;;;;;;;;;;;;;;5108046;28;20044;-72
2022/07/09 06:42:02;;;;;;;13.05;4.70;;;;;;;;;;5107210;28;20047;-72
2022/07/09 06:44:34;;;;;;;21.92;5.00;;;;;;;;;;5107675;28;20070;-72
2022/07/09 06:47:05;;;;;;;11.10;4.75;;;;;;;;;;5108734;28;20047;-72
2022/07/09 06:49:35;;;;;;;12.73;4.40;;;;;;;;;;5108737;28;20051;-72
2022/07/09 06:52:05;;;;;;;10.20;4.65;;;;;;;;;;5109330;28;20121;-72
2022/07/09 06:54:36;;;;;;;10.48;4.47;;;;;;;;;;5107641;28;20046;-72
2022/07/09 06:57:06;;;;;;;9.77;5.10;;;;;;;;;;5088657;28;20047;-72
2022/07/09 06:59:36;;;;;;;9.73;4.32;;;;;;;;;;5108082;28;20040;-72
2022/07/09 07:02:07;;;;;;;10.40;4.72;;;;;;;;;;5107216;28;20051;-72
2022/07/09 07:04:36;;;;;;;8.68;4.50;;;;;;;;;;5088221;28;20055;-72
2022/07/09 07:07:07;;;;;;;13.18;4.63;;;;;;;;;;5106726;28;20117;-72
2022/07/09 07:09:36;;;;;;;11.00;4.43;;;;;;;;;;5106972;28;20052;-72
2022/07/09 07:12:07;;;;;;;8.13;4.53;;;;;;;;;;5106757;28;20407;-72
2022/07/09 07:14:37;;;;;;;6.93;3.72;;;;;;;;;;5106027;28;20058;-73
2022/07/09 07:17:08;;;;;;;8.65;4.10;;;;;;;;;;5089287;28;20052;-73
2022/07/09 07:19:39;;;;;;;9.35;4.68;;;;;;;;;;5107362;28;20399;-72
2022/07/09 07:22:09;;;;;;;9.20;4.40;;;;;;;;;;5106671;28;20052;-73
2022/07/09 07:24:39;;;;;;;6.63;3.92;;;;;;;;;;5087818;28;20047;-72
2022/07/09 07:27:08;;;;;;;;;;;;;;;;;;5107785;28;20058;-72
2022/07/09 07:29:38;;;;;;;7.97;3.42;;;;;;;;;;5107626;28;19923;-72
2022/07/09 07:32:08;;;;;;;7.32;3.58;;;;;;;;;;5106958;28;20050;-72
2022/07/09 07:34:39;;;;;;;6.32;3.38;;;;;;;;;;5108491;28;20470;-72
2022/07/09 07:37:09;;;;;;;9.38;3.97;;;;;;;;;;5111365;28;20051;-72
2022/07/09 07:39:39;;;;;;;5.68;4.10;;;;;;;;;;5111375;28;20055;-72
2022/07/09 07:42:09;;;;;;;10.40;4.15;;;;;;;;;;5110901;28;20052;-71
2022/07/09 07:44:41;;;;;;;10.18;4.60;;;;;;;;;;5110837;28;20055;-72
2022/07/09 07:47:13;;;;;;;6.70;3.90;;;;;;;;;;5111191;28;20052;-72
2022/07/09 07:49:43;;;;;;;6.03;3.92;;;;;;;;;;5110816;28;20039;-72
2022/07/09 07:52:13;;;;;;;8.95;3.35;;;;;;;;;;5111021;28;20047;-72
2022/07/09 07:54:43;;;;;;;8.32;3.60;;;;;;;;;;5111057;28;20047;-72
2022/07/09 07:57:13;;;;;;;6.45;3.50;;;;;;;;;;5110729;28;20051;-72
2022/07/09 07:59:43;;;;;;;8.52;3.70;;;;;;;;;;5110803;28;20052;-72
2022/07/09 08:02:14;;;;;;;6.47;4.18;;;;;;;;;;5110421;28;20483;-72
2022/07/09 08:04:45;;;;;;;6.93;4.07;;;;;;;;;;5110269;28;20383;-72
2022/07/09 08:07:14;;;;;;;9.95;4.20;;;;;;;;;;5110233;28;20052;-71
2022/07/09 08:09:45;;;;;;;7.35;3.72;;;;;;;;;;5110433;28;20039;-72
2022/07/09 08:12:15;;;;;;;5.85;3.17;;;;;;;;;;5110376;28;20498;-72
2022/07/09 08:14:45;;;;;;;5.13;3.15;;;;;;;;;;5110440;28;20615;-72
2022/07/09 08:17:15;;;;;;;9.20;3.65;;;;;;;;;;5110427;28;20043;-72
2022/07/09 08:19:45;;;;;;;9.60;3.28;;;;;;;;;;5110179;28;20048;-72
2022/07/09 08:22:14;;;;;;;;;;;;;;;;;;5111428;28;20410;-71
2022/07/09 08:24:44;;;;;;;6.30;3.35;;;;;;;;;;5110403;28;19923;-72
2022/07/09 08:27:13;;;;;;;7.03;4.20;;;;;;;;;;5110247;28;20051;-72
2022/07/09 08:29:43;;;;;;;6.05;3.30;;;;;;;;;;5109791;28;20048;-72
2022/07/09 08:32:13;;;;;;;;;;;;;;;;;;5110458;28;20051;-72
2022/07/09 08:34:42;;;;;;;5.22;3.38;;;;;;;;;;5109840;28;20413;-72
2022/07/09 08:37:12;;;;;;;10.02;4.32;;;;;;;;;;5110262;28;20051;-72
2022/07/09 08:39:42;;;;;;;6.65;4.30;;;;;;;;;;5109870;28;20059;-72
2022/07/09 08:42:12;;;;;;;5.95;3.25;;;;;;;;;;5109820;28;20047;-72
2022/07/09 08:44:46;;;;;;;9.32;4.57;;;;;;;;;;5091245;28;20051;-72
2022/07/09 08:47:16;;;;;;;7.35;3.83;;;;;;;;;;5109660;28;20047;-72
2022/07/09 08:49:48;;;;;;;10.07;4.28;;;;;;;;;;5109900;28;20056;-72
2022/07/09 08:52:20;;;;;;;9.82;3.95;;;;;;;;;;5109550;28;20502;-72
2022/07/09 08:54:53;;;;;;;11.63;4.47;;;;;;;;;;5090315;28;20502;-72
2022/07/09 08:57:27;;;;;;;10.00;4.80;;;;;;;;;;5109131;28;20048;-71
2022/07/09 08:59:56;;;;;;;9.30;4.15;;;;;;;;;;5091933;28;20502;-72
2022/07/09 09:02:26;;;;;;;9.13;4.07;;;;;;;;;;5108792;28;20062;-71
2022/07/09 09:04:55;;;;;;;;;;;;;;;;;;5110044;28;20494;-72
2022/07/09 09:07:28;;;;;;;9.35;4.18;;;;;;;;;;5108968;28;19930;-72
2022/07/09 09:09:59;;;;;;;5.85;3.63;;;;;;;;;;5109512;28;20043;-72
2022/07/09 09:12:29;;;;;;;6.72;3.78;;;;;;;;;;5109631;28;20044;-72
2022/07/09 09:15:00;;;;;;;5.20;3.42;;;;;;;;;;5109523;28;20043;-72
2022/07/09 09:17:30;;;;;;;6.82;4.07;;;;;;;;;;5108949;28;20074;-72
2022/07/09 09:20:12;;;;;;;8.13;3.92;;;;;;;;;;5108982;28;20406;-72
2022/07/09 09:22:53;;;;;;;6.57;3.83;;;;;;;;;;5108970;28;20051;-72
2022/07/09 09:25:23;;;;;;;7.63;4.07;;;;;;;;;;5108996;28;20467;-71
2022/07/09 09:27:53;;;;;;;;;;;;;;;;;;5109274;28;20434;-72
2022/07/09 09:30:24;;;;;;;5.07;3.30;;;;;;;;;;5108876;28;19927;-72
2022/07/09 09:33:02;;;;;;;7.68;3.67;;;;;;;;;;5108731;28;20047;-73
2022/07/09 09:35:42;;;;;;;8.68;4.43;;;;;;;;;;5108930;28;20050;-72
2022/07/09 09:38:12;;;;;;;6.97;3.83;;;;;;;;;;5109638;28;20051;-72
2022/07/09 09:40:45;;;;;;;;;;;;;;;;;;5109570;28;20055;-73
2022/07/09 09:43:21;;;;;;;6.75;3.90;;;;;;;;;;5108223;28;19928;-72
2022/07/09 09:45:54;;;;;;;8.15;4.20;;;;;;;;;;5108588;28;20051;-72
2022/07/09 09:48:24;;;;;;;7.60;3.95;;;;;;;;;;5090205;28;20095;-72
2022/07/09 09:50:59;;;;;;;6.20;3.95;;;;;;;;;;5108268;28;20043;-72
2022/07/09 09:53:32;;;;;;;7.22;3.92;;;;;;;;;;5087893;28;20074;-73
2022/07/09 09:56:02;;;;;;;8.95;3.85;;;;;;;;;;5106231;28;20047;-72
2022/07/09 09:58:31;;;;;;;;;;;;;;;;;;5107602;28;20047;-72
2022/07/09 10:01:02;;;;;;;5.43;3.70;;;;;;;;;;5108483;28;19947;-72
2022/07/09 10:03:32;;;;;;;5.10;3.53;;;;;;;;;;5108086;28;20052;-72
2022/07/09 10:06:08;;;;;;;7.38;3.65;;;;;;;;;;5108514;28;20494;-72
2022/07/09 10:08:38;;;;;;;7.05;4.28;;;;;;;;;;5107961;28;20050;-72
2022/07/09 10:11:08;;;;;;;10.05;4.40;;;;;;;;;;5107972;28;20040;-72
2022/07/09 10:13:50;;;;;;;7.28;4.82;;;;;;;;;;5089007;28;20058;-73
2022/07/09 10:16:38;;;;;;;8.93;4.63;;;;;;;;;;5107966;28;20045;-72
2022/07/09 10:19:09;;;;;;;7.03;4.65;;;;;;;;;;5108312;28;20051;-72
2022/07/09 10:21:42;;;;;;;11.27;5.28;;;;;;;;;;5107701;28;20643;-72
2022/07/09 10:24:23;;;;;;;10.98;4.93;;;;;;;;;;5107860;28;20051;-72
2022/07/09 10:27:01;;;;;;;10.63;4.47;;;;;;;;;;5088349;28;20082;-72
2022/07/09 10:29:32;;;;;;;9.57;5.20;;;;;;;;;;5107849;28;20109;-74
2022/07/09 10:32:04;;;;;;;8.15;4.40;;;;;;;;;;5108128;28;20051;-73
2022/07/09 10:34:55;;;;;;;9.75;5.07;;;;;;;;;;5107637;28;20054;-75
2022/07/09 10:37:42;;;;;;;7.88;4.65;;;;;;;;;;5106765;28;20075;-72
2022/07/09 10:40:17;;;;;;;9.40;5.90;;;;;;;;;;5106274;28;20051;-75
2022/07/09 10:43:05;;;;;;;9.07;5.90;;;;;;;;;;5105924;28;20047;-72
2022/07/09 10:45:36;;;;;;;7.40;5.00;;;;;;;;;;5105956;28;20057;-74
2022/07/09 10:48:09;;;;;;;12.13;6.22;;;;;;;;;;5106585;28;20043;-75
2022/07/09 10:50:43;;;;;;;9.75;5.25;;;;;;;;;;5106085;28;20062;-73
2022/07/09 10:53:17;;;;;;;9.13;5.25;;;;;;;;;;5107391;28;20067;-72
2022/07/09 10:55:48;;;;;;;9.23;5.55;;;;;;;;;;5107253;28;20043;-73
2022/07/09 10:58:20;;;;;;;9.18;5.82;;;;;;;;;;5107947;28;20046;-72
2022/07/09 11:00:59;;;;;;;12.52;8.05;;;;;;;;;;5107292;28;20047;-73
2022/07/09 11:03:30;;;;;;;12.02;6.18;;;;;;;;;;5088121;28;20510;-74
2022/07/09 11:06:04;;;;;;;8.50;5.57;;;;;;;;;;5107018;28;20039;-74
2022/07/09 11:08:35;;;;;;;14.13;5.78;;;;;;;;;;5089222;28;20537;-73
2022/07/09 11:11:06;;;;;;;10.90;5.07;;;;;;;;;;5107010;28;20047;-73
2022/07/09 11:13:35;;;;;;;;;;;;;;;;;;5107644;28;20047;-73
2022/07/09 11:16:05;;;;;;;8.60;5.22;;;;;;;;;;5107322;28;19920;-73
2022/07/09 11:18:34;;;;;;;10.52;5.60;;;;;;;;;;5088168;28;20079;-78
2022/07/09 11:21:05;;;;;;;7.97;4.15;;;;;;;;;;5106867;28;20059;-73
2022/07/09 11:23:35;;;;;;;;;;;;;;;;;;5107883;28;20040;-74
2022/07/09 11:26:04;;;;;;;6.95;4.63;;;;;;;;;;5106651;28;19924;-74
2022/07/09 11:28:35;;;;;;;7.75;4.65;;;;;;;;;;5107151;28;20396;-73
2022/07/09 11:31:05;;;;;;;14.75;4.53;;;;;;;;;;5106334;28;20513;-73
2022/07/09 11:36:38;;;;;;;11.35;5.15;;;;;;;;;;5106792;28;20051;-73
2022/07/09 11:39:09;;;;;;;14.75;5.60;;;;;;;;;;5106559;28;20048;-74
2022/07/09 11:41:45;;;;;;;7.90;4.22;;;;;;;;;;5106131;28;20051;-73
2022/07/09 11:44:28;;;;;;;17.27;9.98;;;;;;;;;;5107089;28;20513;-74
2022/07/09 11:47:07;;;;;;;10.25;5.80;;;;;;;;;;5106633;28;20048;-73
2022/07/09 11:49:40;;;;;;;7.32;4.40;;;;;;;;;;5106936;28;20051;-73
2022/07/09 11:52:24;;;;;;;12.00;4.10;;;;;;;;;;5106349;28;20406;-80
2022/07/09 11:55:16;;;;;;;6.70;4.38;;;;;;;;;;5106331;28;20075;-74
2022/07/09 11:57:55;;;;;;;5.95;4.10;;;;;;;;;;5106630;28;20047;-73
2022/07/09 12:00:32;;;;;;;9.25;5.00;;;;;;;;;;5106187;28;20119;-74
2022/07/09 12:03:04;;;;;;;8.93;3.78;;;;;;;;;;5105775;28;20043;-74
2022/07/09 12:05:36;;;;;;;6.15;3.92;;;;;;;;;;5106120;28;20491;-74
2022/07/09 12:08:08;;;;;;;11.23;4.75;;;;;;;;;;5105801;28;20059;-76
2022/07/09 12:10:39;;;;;;;10.13;4.25;;;;;;;;;;5106612;28;20039;-74
2022/07/09 12:13:09;;;;;;;11.02;3.95;;;;;;;;;;5105269;28;20502;-74
2022/07/09 12:15:40;;;;;;;8.10;3.97;;;;;;;;;;5087931;28;20073;-75
2022/07/09 12:18:10;;;;;;;6.30;3.92;;;;;;;;;;5105949;28;20047;-74
2022/07/09 12:20:40;;;;;;;11.13;4.03;;;;;;;;;;5106281;28;20058;-74
2022/07/09 12:23:10;;;;;;;9.05;4.10;;;;;;;;;;5091946;28;20074;-75
2022/07/09 12:25:41;;;;;;;8.40;4.05;;;;;;;;;;5109354;28;20054;-74
2022/07/09 12:28:11;;;;;;;7.07;3.88;;;;;;;;;;5109234;28;20051;-74
2022/07/09 12:30:41;;;;;;;7.85;4.40;;;;;;;;;;5109904;28;20043;-79
2022/07/09 12:33:11;;;;;;;7.38;3.90;;;;;;;;;;5110090;28;20406;-79
2022/07/09 12:35:41;;;;;;;8.90;4.22;;;;;;;;;;5109527;28;20052;-79
2022/07/09 12:38:11;;;;;;;7.75;4.28;;;;;;;;;;5108895;28;20047;-80
2022/07/09 12:40:41;;;;;;;8.70;4.43;;;;;;;;;;5090653;28;20048;-74
2022/07/09 12:43:11;;;;;;;8.60;4.30;;;;;;;;;;5109586;28;20399;-74
2022/07/09 12:45:41;;;;;;;10.02;4.30;;;;;;;;;;5108972;28;20050;-74
2022/07/09 12:48:11;;;;;;;12.70;6.22;;;;;;;;;;5109356;28;20594;-75
2022/07/09 12:50:41;;;;;;;9.18;4.72;;;;;;;;;;5109131;28;20039;-74
2022/07/09 12:53:11;;;;;;;7.47;4.10;;;;;;;;;;5109073;28;20043;-80
2022/07/09 12:55:41;;;;;;;9.90;4.00;;;;;;;;;;5109576;28;20051;-80
2022/07/09 12:58:30;;;;;;;14.52;4.50;;;;;;;;;;5095086;28;20406;-82
2022/07/09 13:01:00;;;;;;;11.35;4.40;;;;;;;;;;5110734;28;20054;-80
2022/07/09 13:03:31;;;;;;;10.50;4.65;;;;;;;;;;5110262;28;20047;-79
2022/07/09 13:06:31;;;;;;;6.82;4.00;;;;;;;;;;5108876;28;20059;-80
2022/07/09 13:09:06;;;;;;;28.83;7.60;;;;;;;;;;5110155;28;20053;-82
2022/07/09 13:11:38;;;;;;;9.93;4.25;;;;;;;;;;5109277;28;20046;-81
2022/07/09 13:14:08;;;;;;;18.80;4.63;;;;;;;;;;5109466;28;20047;-80
2022/07/09 13:16:38;;;;;;;8.38;3.92;;;;;;;;;;5108637;28;20516;-81
2022/07/09 13:19:08;;;;;;;16.90;5.10;;;;;;;;;;5091049;28;20521;-81
2022/07/09 13:21:38;;;;;;;10.68;4.47;;;;;;;;;;5108287;28;20056;-79
2022/07/09 13:24:09;;;;;;;4.72;3.55;;;;;;;;;;5090397;28;20103;-78
2022/07/09 13:26:41;;;;;;;12.52;3.90;;;;;;;;;;5108395;28;20055;-82
2022/07/09 13:29:11;;;;;;;8.70;3.50;;;;;;;;;;5110138;28;20110;-82
2022/07/09 13:31:41;;;;;;;9.10;3.80;;;;;;;;;;5074289;28;20055;-83
2022/07/09 13:34:11;;;;;;;6.65;3.88;;;;;;;;;;5109836;28;20048;-83
2022/07/09 13:36:41;;;;;;;7.05;3.20;;;;;;;;;;5109348;28;20402;-83
2022/07/09 13:39:10;;;;;;;7.47;3.85;;;;;;;;;;5112055;28;20051;-83
2022/07/09 13:41:40;;;;;;;7.80;3.45;;;;;;;;;;5110211;28;20094;-83
2022/07/09 13:44:10;;;;;;;4.57;3.47;;;;;;;;;;5108957;28;20349;-82
2022/07/09 13:46:41;;;;;;;5.47;3.10;;;;;;;;;;5108572;28;20054;-81
2022/07/09 13:49:10;;;;;;;7.55;3.33;;;;;;;;;;5108150;28;20044;-82
2022/07/09 13:51:44;;;;;;;6.18;3.38;;;;;;;;;;5107766;28;20410;-81
2022/07/09 13:54:14;;;;;;;5.15;2.95;;;;;;;;;;5108072;28;20044;-81
2022/07/09 13:56:44;;;;;;;4.88;3.22;;;;;;;;;;5107867;28;20521;-81
2022/07/09 13:59:14;;;;;;;6.35;3.00;;;;;;;;;;5089550;28;20058;-81
2022/07/09 14:01:44;;;;;;;8.20;3.47;;;;;;;;;;5107460;28;20047;-84
2022/07/09 14:04:14;;;;;;;7.55;3.65;;;;;;;;;;5107943;28;20047;-83
2022/07/09 14:06:44;;;;;;;9.02;3.58;;;;;;;;;;5107941;28;20051;-83
2022/07/09 14:09:22;;;;;;;5.72;3.45;;;;;;;;;;5107326;28;20373;-86
2022/07/09 14:11:52;;;;;;;8.40;3.67;;;;;;;;;;5107653;28;20044;-82
2022/07/09 14:14:22;;;;;;;5.68;3.72;;;;;;;;;;5107897;28;20160;-82
2022/07/09 14:16:52;;;;;;;6.85;3.40;;;;;;;;;;5089688;28;20051;-83
2022/07/09 14:19:21;;;;;;;7.00;3.63;;;;;;;;;;5090096;28;20513;-83
2022/07/09 14:21:51;;;;;;;8.75;3.65;;;;;;;;;;5107705;28;20402;-83
2022/07/09 14:24:22;;;;;;;10.15;3.78;;;;;;;;;;5088095;28;20043;-83
2022/07/09 14:26:51;;;;;;;7.78;3.55;;;;;;;;;;5108218;28;20066;-84
2022/07/09 14:29:21;;;;;;;5.95;3.40;;;;;;;;;;5107627;28;20044;-83
2022/07/09 14:31:52;;;;;;;4.88;3.50;;;;;;;;;;5107494;28;20052;-83
2022/07/09 14:34:22;;;;;;;6.57;3.45;;;;;;;;;;5108839;28;20047;-84
2022/07/09 14:36:52;;;;;;;8.23;3.10;;;;;;;;;;5106760;28;20070;-84
2022/07/09 14:39:25;;;;;;;11.52;3.95;;;;;;;;;;5089260;28;20418;-84
2022/07/09 14:41:57;;;;;;;7.03;3.40;;;;;;;;;;5107394;28;20070;-81
2022/07/09 14:44:30;;;;;;;8.75;3.70;;;;;;;;;;5106767;28;20047;-83
2022/07/09 14:47:00;;;;;;;9.75;3.80;;;;;;;;;;5107735;28;20048;-82
2022/07/09 14:49:30;;;;;;;5.80;3.38;;;;;;;;;;5107206;28;20055;-85
2022/07/09 14:52:00;;;;;;;9.50;4.10;;;;;;;;;;5107609;28;20514;-82
2022/07/09 14:54:30;;;;;;;6.88;3.40;;;;;;;;;;5106969;28;20059;-80
2022/07/09 14:57:00;;;;;;;6.75;3.55;;;;;;;;;;5107425;28;20410;-81
2022/07/09 14:59:30;;;;;;;9.07;3.58;;;;;;;;;;5107012;28;20456;-78
2022/07/09 15:02:00;;;;;;;9.43;3.35;;;;;;;;;;5106842;28;20035;-79
2022/07/09 15:04:30;;;;;;;8.35;3.25;;;;;;;;;;5087533;28;20061;-77
2022/07/09 15:07:00;;;;;;;11.30;2.90;;;;;;;;;;5105893;28;20055;-81
2022/07/09 15:09:30;;;;;;;5.47;2.92;;;;;;;;;;5106783;28;20079;-78
2022/07/09 15:12:00;;;;;;;5.40;2.78;;;;;;;;;;5105391;28;20078;-77
2022/07/09 15:14:29;;;;;;;6.65;3.38;;;;;;;;;;5106885;28;20047;-78
2022/07/09 15:16:59;;;;;;;6.30;2.72;;;;;;;;;;5106882;28;20054;-78
2022/07/09 15:19:29;;;;;;;6.75;3.03;;;;;;;;;;5106459;28;20509;-78